Time;durP1;ratioP1;P1;durP2;ratioP2;P2;SDS_P1;SDS_P2;PMS_P1;PMS_P2;Temp;Humidity;BMP_temperature;BMP_pressure;BME280_temperature;BME280_humidity;BME280_pressure;Samples;Min_cycle;Max_cycle;Signal;HPM_P1;HPM_P2
2022/03/25 00:01:15;;;;;;;73.85;44.13;;;12.20;99.90;;;;;;5054806;28;20032;-78
2022/03/25 00:03:40;;;;;;;80.05;44.67;;;12.40;99.90;;;;;;5055138;28;20029;-75
2022/03/25 00:06:07;;;;;;;83.70;46.10;;;12.30;99.90;;;;;;5055576;28;20070;-83
2022/03/25 00:08:33;;;;;;;80.88;43.22;;;12.20;99.90;;;;;;5055356;28;20037;-78
2022/03/25 00:10:59;;;;;;;82.38;42.20;;;12.30;99.90;;;;;;5055624;28;20096;-81
2022/03/25 00:13:24;;;;;;;75.97;43.90;;;12.10;99.90;;;;;;5055616;28;20056;-78
2022/03/25 00:15:50;;;;;;;79.10;43.10;;;11.80;99.90;;;;;;5056413;28;20044;-77
2022/03/25 00:18:16;;;;;;;76.95;43.40;;;11.70;99.90;;;;;;5057882;28;20029;-76
2022/03/25 00:20:42;;;;;;;77.40;44.58;;;11.40;99.90;;;;;;5057412;28;20083;-76
2022/03/25 00:23:08;;;;;;;81.55;47.08;;;11.20;99.90;;;;;;5056539;28;20462;-78
2022/03/25 00:25:34;;;;;;;80.10;43.20;;;11.30;99.90;;;;;;5056398;28;20124;-83
2022/03/25 00:28:00;;;;;;;88.82;43.83;;;10.90;99.90;;;;;;5055009;28;20049;-84
2022/03/25 00:30:29;;;;;;;78.18;43.67;;;10.70;99.90;;;;;;5054432;28;20033;-84
2022/03/25 00:32:55;;;;;;;80.85;44.60;;;11.00;99.90;;;;;;5054225;28;20041;-84
2022/03/25 00:35:21;;;;;;;79.88;42.65;;;10.60;99.90;;;;;;5054867;28;20056;-85
2022/03/25 00:37:47;;;;;;;84.85;44.72;;;10.40;99.90;;;;;;5055954;28;20058;-85
2022/03/25 00:40:13;;;;;;;75.57;42.10;;;10.30;99.90;;;;;;5055893;28;20123;-85
2022/03/25 00:42:40;;;;;;;77.75;43.92;;;10.00;99.90;;;;;;5053705;28;20037;-84
2022/03/25 00:45:07;;;;;;;80.70;43.38;;;9.80;99.90;;;;;;5053220;28;20021;-84
2022/03/25 00:47:36;;;;;;;75.90;43.47;;;9.70;99.90;;;;;;5052869;28;20040;-84
2022/03/25 00:50:03;;;;;;;80.22;42.85;;;9.70;99.90;;;;;;5036441;28;20477;-84
2022/03/25 00:52:29;;;;;;;77.57;43.88;;;10.00;99.90;;;;;;5054033;28;20474;-84
2022/03/25 00:54:55;;;;;;;80.82;43.67;;;10.20;99.90;;;;;;5052502;28;20027;-84
2022/03/25 00:57:21;;;;;;;82.85;42.95;;;10.30;99.90;;;;;;5054120;28;20112;-84
2022/03/25 00:59:47;;;;;;;85.10;44.45;;;10.70;99.90;;;;;;5054674;28;20108;-84
2022/03/25 01:02:13;;;;;;;78.07;42.83;;;10.50;99.90;;;;;;5050091;28;20030;-84
2022/03/25 01:04:39;;;;;;;78.32;44.00;;;10.70;99.90;;;;;;5034552;28;20462;-84
2022/03/25 01:07:05;;;;;;;75.80;43.70;;;10.60;99.90;;;;;;5035497;28;20026;-85
2022/03/25 01:09:31;;;;;;;78.57;43.30;;;10.40;99.90;;;;;;5034792;28;20073;-81
2022/03/25 01:11:58;;;;;;;78.75;44.00;;;10.40;99.90;;;;;;5034264;28;20040;-84
2022/03/25 01:14:24;;;;;;;84.65;45.05;;;10.40;99.90;;;;;;5032908;28;20084;-85
2022/03/25 01:16:50;;;;;;;80.85;46.00;;;10.40;99.90;;;;;;5034176;28;20026;-85
2022/03/25 01:19:15;;;;;;;88.57;45.80;;;10.50;99.90;;;;;;5033033;28;20048;-84
2022/03/25 01:21:41;;;;;;;78.50;43.72;;;10.00;99.90;;;;;;5033835;28;20036;-84
2022/03/25 01:24:09;;;;;;;78.70;43.97;;;9.60;99.90;;;;;;5032455;28;20116;-84
2022/03/25 01:26:35;;;;;;;84.03;45.33;;;9.50;99.90;;;;;;5032444;28;20164;-83
2022/03/25 01:29:01;;;;;;;85.82;45.90;;;9.40;99.90;;;;;;5032235;28;20491;-83
2022/03/25 01:31:27;;;;;;;85.13;44.95;;;9.50;99.90;;;;;;5032434;28;20112;-84
2022/03/25 01:33:53;;;;;;;83.13;45.17;;;9.40;99.90;;;;;;5032909;28;20402;-84
2022/03/25 01:36:19;;;;;;;80.28;44.85;;;9.60;99.90;;;;;;5033913;28;20029;-85
2022/03/25 01:38:45;;;;;;;77.88;44.05;;;9.80;99.90;;;;;;5032909;28;20126;-85
2022/03/25 01:41:11;;;;;;;83.72;45.35;;;9.80;99.90;;;;;;5033177;28;20037;-86
2022/03/25 01:43:37;;;;;;;84.20;46.60;;;9.60;99.90;;;;;;5034242;28;20042;-86
2022/03/25 01:46:02;;;;;;;83.68;45.67;;;9.80;99.90;;;;;;5034889;28;20473;-84
2022/03/25 01:48:29;;;;;;;85.78;47.03;;;10.00;99.90;;;;;;5052154;28;20036;-86
2022/03/25 01:50:54;;;;;;;86.47;45.05;;;10.10;99.90;;;;;;5054297;28;20028;-84
2022/03/25 01:53:25;;;;;;;87.47;46.72;;;10.30;99.90;;;;;;5055381;28;20064;-86
2022/03/25 01:55:59;;;;;;;86.75;46.30;;;10.40;99.90;;;;;;5055568;28;20032;-84
2022/03/25 01:58:30;;;;;;;85.95;45.95;;;10.40;99.90;;;;;;5053858;28;20056;-86
2022/03/25 02:01:02;;;;;;;83.22;44.72;;;10.40;99.90;;;;;;5053716;28;20096;-80
2022/03/25 02:03:31;;;;;;;;;;;10.30;99.90;;;;;;5052784;28;20032;-86
2022/03/25 02:05:57;;;;;;;89.97;46.10;;;10.30;99.90;;;;;;5052379;28;19912;-85
2022/03/25 02:08:22;;;;;;;78.32;44.60;;;10.40;99.90;;;;;;5053868;28;20377;-85
2022/03/25 02:10:48;;;;;;;83.57;43.00;;;10.50;99.90;;;;;;5052855;28;20025;-85
2022/03/25 02:13:17;;;;;;;89.18;46.28;;;10.60;99.90;;;;;;5053089;28;20033;-86
2022/03/25 02:15:48;;;;;;;81.53;44.13;;;10.60;99.90;;;;;;5053732;28;20021;-85
2022/03/25 02:18:18;;;;;;;82.97;44.63;;;10.60;99.90;;;;;;5036106;28;20036;-85
2022/03/25 02:20:44;;;;;;;78.03;42.00;;;10.60;99.90;;;;;;5054095;28;20029;-86
2022/03/25 02:23:13;;;;;;;80.05;41.70;;;10.30;99.90;;;;;;5052365;28;20539;-85
2022/03/25 02:25:41;;;;;;;91.20;42.42;;;10.40;99.90;;;;;;5053009;28;20110;-85
2022/03/25 02:28:08;;;;;;;81.28;42.15;;;10.40;99.90;;;;;;5036110;28;20060;-85
2022/03/25 02:30:37;;;;;;;77.78;40.78;;;10.40;99.90;;;;;;5055089;28;20381;-86
2022/03/25 02:33:04;;;;;;;77.28;41.85;;;10.40;99.90;;;;;;5052430;28;20482;-86
2022/03/25 02:35:41;;;;;;;73.57;39.85;;;10.40;99.90;;;;;;5053489;28;20108;-86
2022/03/25 02:38:09;;;;;;;75.63;40.42;;;10.20;99.90;;;;;;5051769;28;20032;-86
2022/03/25 02:40:35;;;;;;;71.63;38.83;;;10.20;99.90;;;;;;5051716;28;20021;-86
2022/03/25 02:43:01;;;;;;;76.20;40.45;;;10.10;99.90;;;;;;5053240;28;20040;-86
2022/03/25 02:45:27;;;;;;;69.55;39.03;;;10.10;99.90;;;;;;5052071;28;20021;-86
2022/03/25 02:47:53;;;;;;;71.72;38.22;;;10.10;99.90;;;;;;5051877;28;20052;-83
2022/03/25 02:50:19;;;;;;;72.63;38.35;;;10.00;99.90;;;;;;5051701;28;20021;-86
2022/03/25 02:52:45;;;;;;;65.88;40.10;;;10.10;99.90;;;;;;5053353;28;20044;-86
2022/03/25 02:55:12;;;;;;;73.45;39.33;;;9.90;99.90;;;;;;5052753;28;20465;-86
2022/03/25 02:57:38;;;;;;;78.40;38.00;;;10.10;99.90;;;;;;5054003;28;20024;-85
2022/03/25 03:00:09;;;;;;;69.97;39.05;;;10.20;99.90;;;;;;5053575;28;20040;-85
2022/03/25 03:02:36;;;;;;;83.07;38.38;;;10.30;99.90;;;;;;5045382;28;20170;-84
2022/03/25 03:05:03;;;;;;;68.63;37.92;;;10.30;99.90;;;;;;5033980;28;20041;-86
2022/03/25 03:07:29;;;;;;;67.55;36.38;;;10.30;99.90;;;;;;5034134;28;20408;-86
2022/03/25 03:09:55;;;;;;;67.75;37.83;;;10.30;99.90;;;;;;5033526;28;20036;-86
2022/03/25 03:12:21;;;;;;;67.70;37.17;;;10.00;99.90;;;;;;5034267;28;20072;-82
2022/03/25 03:14:47;;;;;;;65.20;38.10;;;9.80;99.90;;;;;;5034184;28;20030;-86
2022/03/25 03:17:13;;;;;;;78.07;36.55;;;9.70;99.90;;;;;;5034671;28;20030;-86
2022/03/25 03:19:39;;;;;;;68.93;35.55;;;9.40;99.90;;;;;;5037909;28;20025;-86
2022/03/25 03:22:05;;;;;;;77.05;39.95;;;9.30;99.90;;;;;;5037624;28;20029;-85
2022/03/25 03:24:31;;;;;;;69.95;39.55;;;9.50;99.90;;;;;;5036111;28;20032;-85
2022/03/25 03:26:59;;;;;;;76.50;41.20;;;9.70;99.90;;;;;;5036271;28;20050;-83
2022/03/25 03:29:25;;;;;;;76.68;41.47;;;9.80;99.90;;;;;;5037800;28;20034;-86
2022/03/25 03:31:51;;;;;;;68.13;38.05;;;10.00;99.90;;;;;;5038738;28;20032;-86
2022/03/25 03:34:17;;;;;;;76.93;41.78;;;9.90;99.90;;;;;;5043179;28;20025;-86
2022/03/25 03:36:43;;;;;;;79.55;38.40;;;9.80;99.90;;;;;;5021146;28;20484;-86
2022/03/25 03:39:11;;;;;;;74.30;38.42;;;9.40;99.90;;;;;;5037274;28;20033;-86
2022/03/25 03:41:38;;;;;;;72.15;36.13;;;9.30;99.90;;;;;;5037608;28;20041;-86
2022/03/25 03:44:05;;;;;;;73.68;37.75;;;8.80;99.90;;;;;;5037042;28;20029;-86
2022/03/25 03:46:32;;;;;;;74.38;38.70;;;8.70;99.90;;;;;;5038966;28;20029;-82
2022/03/25 03:49:00;;;;;;;68.28;37.95;;;8.70;99.90;;;;;;5056668;28;20057;-87
2022/03/25 03:51:26;;;;;;;65.32;37.17;;;8.40;99.90;;;;;;5054903;28;20421;-87
2022/03/25 03:53:52;;;;;;;66.60;36.97;;;8.50;99.90;;;;;;5056238;28;20083;-87
2022/03/25 03:56:18;;;;;;;72.57;35.80;;;8.70;99.90;;;;;;5055233;28;20472;-87
2022/03/25 03:58:43;;;;;;;72.13;36.90;;;8.30;99.90;;;;;;5056560;28;20025;-88
2022/03/25 04:01:10;;;;;;;72.55;35.85;;;8.40;99.90;;;;;;5056304;28;20033;-88
2022/03/25 04:03:35;;;;;;;71.18;35.67;;;8.30;99.90;;;;;;5038075;28;20072;-86
2022/03/25 04:06:01;;;;;;;71.25;35.70;;;8.30;99.90;;;;;;5036124;28;20025;-87
2022/03/25 04:08:27;;;;;;;61.55;35.03;;;8.30;99.90;;;;;;5035616;28;20118;-87
2022/03/25 04:10:53;;;;;;;62.78;35.05;;;8.10;99.90;;;;;;5034728;28;20032;-88
2022/03/25 04:13:19;;;;;;;63.90;35.70;;;7.80;99.90;;;;;;5035401;28;20083;-88
2022/03/25 04:15:45;;;;;;;63.80;35.08;;;7.60;99.90;;;;;;5035459;28;20029;-88
2022/03/25 04:18:11;;;;;;;69.70;34.30;;;7.50;99.90;;;;;;5034363;28;20033;-88
2022/03/25 04:20:36;;;;;;;63.65;34.53;;;7.80;99.90;;;;;;5035598;28;20033;-85
2022/03/25 04:23:02;;;;;;;62.58;34.25;;;8.10;99.90;;;;;;5035182;28;20029;-85
2022/03/25 04:25:28;;;;;;;69.95;36.65;;;8.30;99.90;;;;;;5034192;28;20079;-87
2022/03/25 04:27:58;;;;;;;69.32;36.15;;;8.40;99.90;;;;;;5035159;28;20493;-87
2022/03/25 04:30:29;;;;;;;68.78;36.80;;;8.60;99.90;;;;;;5034313;28;20068;-85
2022/03/25 04:32:56;;;;;;;70.63;36.15;;;8.30;99.90;;;;;;5035139;28;20121;-88
2022/03/25 04:35:23;;;;;;;64.35;33.53;;;8.10;99.90;;;;;;5035137;28;20033;-88
2022/03/25 04:37:49;;;;;;;62.58;33.53;;;8.20;99.90;;;;;;5034755;28;20026;-87
2022/03/25 04:40:20;;;;;;;55.95;32.92;;;8.00;99.90;;;;;;5034949;28;20364;-88
2022/03/25 04:42:50;;;;;;;67.65;34.40;;;8.00;99.90;;;;;;5033752;28;20025;-87
2022/03/25 04:45:17;;;;;;;57.92;34.08;;;8.20;99.90;;;;;;5034856;28;20504;-85
2022/03/25 04:47:44;;;;;;;63.38;33.42;;;8.20;99.90;;;;;;5045760;28;20078;-87
2022/03/25 04:50:11;;;;;;;56.38;31.13;;;8.30;99.90;;;;;;5052915;28;20478;-86
2022/03/25 04:52:38;;;;;;;58.17;31.85;;;8.00;99.90;;;;;;5054143;28;20078;-88
2022/03/25 04:55:04;;;;;;;61.67;32.78;;;7.60;99.90;;;;;;5054648;28;20025;-87
2022/03/25 04:57:30;;;;;;;70.60;36.72;;;7.80;99.90;;;;;;5054272;28;20040;-87
2022/03/25 04:59:56;;;;;;;63.40;33.33;;;8.00;99.90;;;;;;5054332;28;20029;-84
2022/03/25 05:02:22;;;;;;;69.80;34.97;;;8.00;99.90;;;;;;5046908;28;20033;-85
2022/03/25 05:04:48;;;;;;;64.05;33.47;;;7.90;99.90;;;;;;5032623;28;20037;-84
2022/03/25 05:07:18;;;;;;;70.50;34.78;;;8.10;99.90;;;;;;5032610;28;20033;-88
2022/03/25 05:09:44;;;;;;;60.22;35.08;;;8.10;99.90;;;;;;5034236;28;20104;-87
2022/03/25 05:12:12;;;;;;;66.20;33.13;;;8.20;99.90;;;;;;5032607;28;20121;-87
2022/03/25 05:14:41;;;;;;;55.60;32.28;;;8.20;99.90;;;;;;5034104;28;20425;-85
2022/03/25 05:17:07;;;;;;;58.83;32.92;;;8.30;99.90;;;;;;5033649;28;20052;-86
2022/03/25 05:19:33;;;;;;;59.58;33.83;;;8.10;99.90;;;;;;5033635;28;20466;-87
2022/03/25 05:21:59;;;;;;;59.83;35.33;;;8.20;99.90;;;;;;5033781;28;20029;-87
2022/03/25 05:24:26;;;;;;;63.85;33.67;;;8.20;99.90;;;;;;5033461;28;20094;-87
2022/03/25 05:26:53;;;;;;;63.22;32.88;;;8.30;99.90;;;;;;5033713;28;20467;-87
2022/03/25 05:29:19;;;;;;;60.20;32.58;;;7.80;99.90;;;;;;5032525;28;20031;-74
2022/03/25 05:31:45;;;;;;;56.97;33.35;;;7.60;99.90;;;;;;5032398;28;20030;-87
2022/03/25 05:34:11;;;;;;;68.93;34.40;;;7.40;99.90;;;;;;5033503;28;20040;-77
2022/03/25 05:36:36;;;;;;;69.70;33.15;;;7.60;99.90;;;;;;5033603;28;20025;-81
2022/03/25 05:39:03;;;;;;;64.85;35.22;;;7.70;99.90;;;;;;5033475;28;20073;-76
2022/03/25 05:41:30;;;;;;;66.65;33.97;;;7.90;99.90;;;;;;5033791;28;20025;-87
2022/03/25 05:43:56;;;;;;;63.85;32.58;;;7.80;99.90;;;;;;5032150;28;20120;-87
2022/03/25 05:46:22;;;;;;;64.05;33.42;;;7.80;99.90;;;;;;5034821;28;20021;-75
2022/03/25 05:48:48;;;;;;;72.13;33.15;;;7.90;99.90;;;;;;5051887;28;20033;-82
2022/03/25 05:51:16;;;;;;;61.22;33.03;;;7.80;99.90;;;;;;5053386;28;20040;-87
2022/03/25 05:53:42;;;;;;;65.30;34.78;;;7.50;99.90;;;;;;5053224;28;20033;-87
2022/03/25 05:56:09;;;;;;;60.75;33.10;;;7.70;99.90;;;;;;5052071;28;20029;-86
2022/03/25 05:58:35;;;;;;;66.38;33.80;;;7.40;99.90;;;;;;5053269;28;20114;-84
2022/03/25 06:01:02;;;;;;;68.78;33.10;;;7.40;99.90;;;;;;5051932;28;20492;-86
2022/03/25 06:03:30;;;;;;;68.03;34.85;;;7.60;99.90;;;;;;5037040;28;20044;-86
2022/03/25 06:05:56;;;;;;;66.78;33.67;;;7.80;99.90;;;;;;5035658;28;20029;-87
2022/03/25 06:08:23;;;;;;;62.08;33.63;;;8.10;99.90;;;;;;5044956;28;20370;-86
2022/03/25 06:10:50;;;;;;;65.88;34.70;;;8.10;99.90;;;;;;5039953;28;20112;-86
2022/03/25 06:13:16;;;;;;;71.07;35.10;;;8.00;99.90;;;;;;5045716;28;20076;-86
2022/03/25 06:15:42;;;;;;;76.15;35.63;;;8.20;99.90;;;;;;5049329;28;20033;-85
2022/03/25 06:18:08;;;;;;;60.50;35.15;;;8.40;99.90;;;;;;5048201;28;20057;-81
2022/03/25 06:20:34;;;;;;;66.50;33.22;;;8.40;99.90;;;;;;5045758;28;20029;-85
2022/03/25 06:23:00;;;;;;;67.00;34.03;;;8.40;99.90;;;;;;5038101;28;20026;-86
2022/03/25 06:25:26;;;;;;;62.28;33.90;;;8.20;99.90;;;;;;5034203;28;20512;-86
2022/03/25 06:27:54;;;;;;;65.53;34.35;;;8.40;99.90;;;;;;5045639;28;20036;-87
2022/03/25 06:30:24;;;;;;;69.93;35.78;;;8.50;99.90;;;;;;5041207;28;20159;-86
2022/03/25 06:32:50;;;;;;;66.55;36.47;;;8.40;99.90;;;;;;5042259;28;20045;-86
2022/03/25 06:35:16;;;;;;;60.63;35.25;;;8.60;99.90;;;;;;5033056;28;20022;-86
2022/03/25 06:37:44;;;;;;;79.78;36.78;;;8.60;99.90;;;;;;5031871;28;20026;-86
2022/03/25 06:40:11;;;;;;;74.05;36.30;;;8.60;99.90;;;;;;5032977;28;20048;-87
2022/03/25 06:42:38;;;;;;;67.57;35.38;;;8.80;99.90;;;;;;5033085;28;20075;-87
2022/03/25 06:45:06;;;;;;;65.20;36.97;;;8.80;99.90;;;;;;5031533;28;20034;-87
2022/03/25 06:47:32;;;;;;;68.60;36.17;;;8.50;99.90;;;;;;5042457;28;20512;-86
2022/03/25 06:49:58;;;;;;;66.80;38.33;;;8.80;99.90;;;;;;5052983;28;20033;-87
2022/03/25 06:52:24;;;;;;;69.47;39.03;;;9.10;99.90;;;;;;5053944;28;20044;-86
2022/03/25 06:54:50;;;;;;;74.93;40.45;;;9.40;99.90;;;;;;5056473;28;20043;-87
2022/03/25 06:57:17;;;;;;;71.65;40.28;;;9.10;99.90;;;;;;5056642;28;20498;-86
2022/03/25 06:59:43;;;;;;;79.75;42.00;;;9.20;99.90;;;;;;5056536;28;20036;-86
2022/03/25 07:02:10;;;;;;;72.30;39.90;;;9.10;99.90;;;;;;5051611;28;20048;-87
2022/03/25 07:04:37;;;;;;;81.80;43.25;;;9.20;99.90;;;;;;5041960;28;20037;-86
2022/03/25 07:07:04;;;;;;;83.18;42.95;;;9.30;99.90;;;;;;5041338;28;20040;-81
2022/03/25 07:09:30;;;;;;;78.40;43.85;;;9.40;99.90;;;;;;5038344;28;20037;-78
2022/03/25 07:11:57;;;;;;;71.72;41.97;;;9.40;99.90;;;;;;5037877;28;20106;-86
2022/03/25 07:14:23;;;;;;;72.22;42.78;;;9.70;99.90;;;;;;5036541;28;20029;-86
2022/03/25 07:16:49;;;;;;;73.05;44.65;;;9.90;99.90;;;;;;5034783;28;20033;-85
2022/03/25 07:19:15;;;;;;;82.93;45.25;;;10.00;99.90;;;;;;5036015;28;20041;-86
2022/03/25 07:21:40;;;;;;;79.10;42.88;;;10.10;99.90;;;;;;5034820;28;20029;-84
2022/03/25 07:24:06;;;;;;;84.38;43.95;;;10.40;99.90;;;;;;5035793;28;20060;-84
2022/03/25 07:26:32;;;;;;;80.13;42.83;;;10.30;99.90;;;;;;5034350;28;20079;-85
2022/03/25 07:28:58;;;;;;;75.88;42.40;;;10.40;99.90;;;;;;5035996;28;20029;-84
2022/03/25 07:31:28;;;;;;;87.55;42.25;;;10.50;99.90;;;;;;5048940;28;20029;-85
2022/03/25 07:33:58;;;;;;;74.55;40.63;;;10.60;99.90;;;;;;5055463;28;20128;-84
2022/03/25 07:36:25;;;;;;;79.00;41.40;;;10.60;99.90;;;;;;5040652;28;20057;-86
2022/03/25 07:38:51;;;;;;;68.90;40.25;;;10.80;99.90;;;;;;5035554;28;20025;-83
2022/03/25 07:41:18;;;;;;;66.55;40.85;;;10.80;99.90;;;;;;5035470;28;20112;-86
2022/03/25 07:43:45;;;;;;;79.05;42.17;;;10.90;99.90;;;;;;5035135;28;20033;-85
2022/03/25 07:46:11;;;;;;;80.78;40.63;;;11.00;99.90;;;;;;5033135;28;20049;-87
2022/03/25 07:48:37;;;;;;;80.20;40.58;;;11.20;99.90;;;;;;5050335;28;20060;-87
2022/03/25 07:51:03;;;;;;;71.47;38.83;;;11.40;99.90;;;;;;5035821;28;20056;-84
2022/03/25 07:53:31;;;;;;;76.35;39.88;;;11.10;99.90;;;;;;5035579;28;20457;-86
2022/03/25 07:55:57;;;;;;;66.97;39.05;;;11.40;99.90;;;;;;5035009;28;20030;-85
2022/03/25 07:58:23;;;;;;;73.38;41.35;;;11.10;99.90;;;;;;5034765;28;20030;-88
2022/03/25 08:00:50;;;;;;;82.95;40.65;;;11.40;99.90;;;;;;5045853;28;20087;-87
2022/03/25 08:03:16;;;;;;;72.63;39.97;;;11.60;99.80;;;;;;5054414;28;20029;-88
2022/03/25 08:05:43;;;;;;;71.43;40.30;;;11.50;98.90;;;;;;5054643;28;20499;-79
2022/03/25 08:08:09;;;;;;;78.35;41.10;;;11.50;99.60;;;;;;5054062;28;20025;-81
2022/03/25 08:10:36;;;;;;;67.18;38.97;;;11.90;99.40;;;;;;5040806;28;20029;-87
2022/03/25 08:13:03;;;;;;;69.93;38.97;;;12.20;99.10;;;;;;5034624;28;20069;-81
2022/03/25 08:15:30;;;;;;;66.57;38.50;;;12.50;97.00;;;;;;5034149;28;20032;-86
2022/03/25 08:18:06;;;;;;;68.75;39.40;;;12.70;96.70;;;;;;5034515;28;20021;-85
2022/03/25 08:20:37;;;;;;;72.45;38.88;;;12.60;97.00;;;;;;5034787;28;20037;-86
2022/03/25 08:23:09;;;;;;;70.23;33.77;;;12.30;95.00;;;;;;5033211;28;20033;-81
2022/03/25 08:28:19;;;;;;;57.20;32.05;;;13.00;92.50;;;;;;5034387;28;20045;-86
2022/03/25 08:30:46;;;;;;;60.25;32.67;;;13.10;92.50;;;;;;5040227;28;20018;-82
2022/03/25 08:33:13;;;;;;;60.00;32.35;;;13.10;92.40;;;;;;5034396;28;20060;-82
2022/03/25 08:35:41;;;;;;;60.88;30.65;;;13.20;92.00;;;;;;5034365;28;20374;-84
2022/03/25 08:38:07;;;;;;;57.70;31.00;;;13.00;91.60;;;;;;5034290;28;20497;-84
2022/03/25 08:40:34;;;;;;;59.00;33.22;;;12.80;91.50;;;;;;5034125;28;20041;-84
2022/03/25 08:43:04;;;;;;;81.45;36.08;;;13.00;92.20;;;;;;5034085;28;20025;-85
2022/03/25 08:45:31;;;;;;;77.72;36.45;;;13.20;91.80;;;;;;5034419;28;20037;-86
2022/03/25 08:47:57;;;;;;;60.78;35.08;;;13.20;92.40;;;;;;5049159;28;20021;-80
2022/03/25 08:50:23;;;;;;;70.32;35.67;;;13.40;92.40;;;;;;5038205;28;20040;-79
2022/03/25 08:52:50;;;;;;;61.15;35.33;;;13.60;92.20;;;;;;5033020;28;20033;-84
2022/03/25 08:55:18;;;;;;;67.93;34.55;;;13.90;91.60;;;;;;5026231;28;20025;-85
2022/03/25 08:57:45;;;;;;;61.15;33.78;;;14.00;91.40;;;;;;5052253;28;20108;-80
2022/03/25 09:00:14;;;;;;;64.40;35.13;;;14.10;91.40;;;;;;5053616;28;20539;-78
2022/03/25 09:02:43;;;;;;;62.63;34.25;;;14.20;90.40;;;;;;5053841;28;20036;-80
2022/03/25 09:05:12;;;;;;;57.65;33.58;;;14.50;90.90;;;;;;5052750;28;20076;-79
2022/03/25 09:07:39;;;;;;;61.28;34.55;;;14.60;90.60;;;;;;5053795;28;20037;-77
2022/03/25 09:10:10;;;;;;;71.88;34.78;;;14.60;90.50;;;;;;5053945;28;20353;-79
2022/03/25 09:12:37;;;;;;;57.97;35.15;;;14.70;90.60;;;;;;5052082;28;20094;-81
2022/03/25 09:15:07;;;;;;;58.63;32.92;;;14.60;91.10;;;;;;5053405;28;20029;-80
2022/03/25 09:17:33;;;;;;;74.38;34.67;;;14.80;90.10;;;;;;5053888;28;20029;-78
2022/03/25 09:19:58;;;;;;;58.90;33.95;;;15.00;90.00;;;;;;5052486;28;20029;-79
2022/03/25 09:22:24;;;;;;;69.00;35.67;;;15.10;90.00;;;;;;5044884;28;20056;-74
2022/03/25 09:24:50;;;;;;;62.22;34.85;;;15.40;89.20;;;;;;5053218;28;20182;-78
2022/03/25 09:27:16;;;;;;;62.40;33.95;;;15.50;86.80;;;;;;5053140;28;20031;-75
2022/03/25 09:29:42;;;;;;;60.65;34.58;;;15.60;87.90;;;;;;5053513;28;20033;-84
2022/03/25 09:32:07;;;;;;;61.10;35.28;;;15.80;86.80;;;;;;5053259;28;20033;-83
2022/03/25 09:37:18;;;;;;;61.72;35.97;;;15.90;83.90;;;;;;5052792;28;20119;-84
2022/03/25 09:39:44;;;;;;;71.50;39.10;;;16.20;85.30;;;;;;5053341;28;20155;-83
2022/03/25 09:42:10;;;;;;;60.10;33.42;;;16.20;83.80;;;;;;5052677;28;20025;-83
2022/03/25 09:44:39;;;;;;;54.65;33.85;;;16.10;83.30;;;;;;5053271;28;20515;-83
2022/03/25 09:47:05;;;;;;;63.35;34.72;;;16.30;84.00;;;;;;5051915;28;20091;-80
2022/03/25 09:49:31;;;;;;;67.68;40.50;;;16.30;84.70;;;;;;5053124;28;20033;-83
2022/03/25 09:51:58;;;;;;;71.45;40.88;;;16.40;86.50;;;;;;5051733;28;20082;-82
2022/03/25 09:54:24;;;;;;;66.85;38.97;;;16.10;84.60;;;;;;5052773;28;20028;-83
2022/03/25 09:56:50;;;;;;;69.45;38.30;;;16.10;84.20;;;;;;5052868;28;20117;-83
2022/03/25 09:59:17;;;;;;;70.00;39.33;;;16.10;84.90;;;;;;5052939;28;20531;-83
2022/03/25 10:01:43;;;;;;;68.63;38.53;;;16.40;84.70;;;;;;5034792;28;20108;-82
2022/03/25 10:04:09;;;;;;;66.15;39.40;;;16.30;84.10;;;;;;5033912;28;20060;-82
2022/03/25 10:06:46;;;;;;;66.38;38.70;;;16.40;85.30;;;;;;5031686;28;20025;-82
2022/03/25 10:09:21;;;;;;;69.30;40.53;;;16.70;85.90;;;;;;5032091;28;20113;-81
2022/03/25 10:11:47;;;;;;;63.50;37.95;;;17.00;84.30;;;;;;5050039;28;20434;-75
2022/03/25 10:14:28;;;;;;;60.90;36.83;;;17.00;84.00;;;;;;5051176;28;20029;-80
2022/03/25 10:16:54;;;;;;;63.03;35.60;;;17.20;83.60;;;;;;5052719;28;20029;-79
2022/03/25 10:19:21;;;;;;;62.33;36.28;;;17.10;82.80;;;;;;5052646;28;20032;-79
2022/03/25 10:21:52;;;;;;;58.65;34.42;;;17.30;82.80;;;;;;5052295;28;20037;-78
2022/03/25 10:24:34;;;;;;;61.92;34.20;;;17.20;82.60;;;;;;5038358;28;20470;-77
2022/03/25 10:27:07;;;;;;;;;;;17.50;81.90;;;;;;5032064;28;20560;-76
2022/03/25 10:29:37;;;;;;;62.17;33.58;;;17.40;81.40;;;;;;5031532;28;20404;-77
2022/03/25 10:32:05;;;;;;;63.55;31.33;;;17.70;82.00;;;;;;5035448;28;20505;-77
2022/03/25 10:34:32;;;;;;;48.13;30.73;;;18.10;81.10;;;;;;5032064;28;20044;-75
2022/03/25 10:37:04;;;;;;;53.55;31.02;;;18.10;79.40;;;;;;5032617;28;20074;-75
2022/03/25 10:39:31;;;;;;;53.55;32.28;;;18.00;79.90;;;;;;5031829;28;20037;-74
2022/03/25 10:42:02;;;;;;;49.55;31.73;;;18.20;80.30;;;;;;5030949;28;20026;-79
2022/03/25 10:44:37;;;;;;;53.60;30.75;;;18.20;78.90;;;;;;5032393;28;20040;-75
2022/03/25 10:47:24;;;;;;;43.80;29.55;;;18.50;77.20;;;;;;5033843;28;20071;-73
2022/03/25 10:49:51;;;;;;;56.13;31.67;;;18.00;78.50;;;;;;5031977;28;20030;-74
2022/03/25 10:52:34;;;;;;;55.00;30.20;;;18.30;78.30;;;;;;5028909;28;20045;-77
2022/03/25 10:55:22;;;;;;;45.55;26.05;;;18.40;77.50;;;;;;5030295;28;20033;-78
2022/03/25 10:57:56;;;;;;;45.45;27.60;;;18.40;75.30;;;;;;5032502;28;20038;-78
2022/03/25 11:00:27;;;;;;;41.83;25.67;;;18.50;74.50;;;;;;5032133;28;20103;-79
2022/03/25 11:02:53;;;;;;;45.38;28.63;;;19.00;74.90;;;;;;5042281;28;20059;-79
2022/03/25 11:05:20;;;;;;;55.85;29.77;;;19.00;74.10;;;;;;5051456;28;20070;-72
2022/03/25 11:07:47;;;;;;;51.53;29.83;;;19.10;75.20;;;;;;5051123;28;20068;-82
2022/03/25 11:10:17;;;;;;;47.90;29.50;;;18.70;75.30;;;;;;5049304;28;20108;-81
2022/03/25 11:12:52;;;;;;;44.53;27.42;;;18.60;75.60;;;;;;5032030;28;20037;-82
2022/03/25 11:15:19;;;;;;;43.17;25.05;;;19.10;73.10;;;;;;5029930;28;20105;-82
2022/03/25 11:17:46;;;;;;;36.58;22.88;;;18.70;71.90;;;;;;5029742;28;20032;-83
2022/03/25 11:20:14;;;;;;;36.33;23.45;;;19.00;71.90;;;;;;5030280;28;20037;-83
2022/03/25 11:22:49;;;;;;;49.08;26.15;;;19.10;70.40;;;;;;5032034;28;20486;-80
2022/03/25 11:25:18;;;;;;;43.53;26.60;;;19.20;72.60;;;;;;5031986;28;20152;-84
2022/03/25 11:27:56;;;;;;;43.92;24.52;;;19.70;72.40;;;;;;5030344;28;20053;-84
2022/03/25 11:30:21;;;;;;;36.72;22.33;;;18.90;71.10;;;;;;5031771;28;20492;-82
2022/03/25 11:32:57;;;;;;;42.03;23.65;;;19.30;71.10;;;;;;5031006;28;20038;-84
2022/03/25 11:35:24;;;;;;;33.17;22.33;;;19.90;69.10;;;;;;5032059;28;20021;-84
2022/03/25 11:38:11;;;;;;;38.72;23.52;;;19.60;70.60;;;;;;5032116;28;20561;-83
2022/03/25 11:40:44;;;;;;;51.05;25.02;;;20.00;68.90;;;;;;5035448;28;20080;-85
2022/03/25 11:43:12;;;;;;;47.70;22.83;;;20.50;70.70;;;;;;5035813;28;20099;-84
2022/03/25 11:45:38;;;;;;;36.78;20.30;;;20.90;69.70;;;;;;5035432;28;20470;-80
2022/03/25 11:48:04;;;;;;;38.05;22.98;;;21.70;66.20;;;;;;5049719;28;20025;-84
2022/03/25 11:50:35;;;;;;;37.38;23.15;;;21.80;65.70;;;;;;5055127;28;20119;-83
2022/03/25 11:53:10;;;;;;;34.17;20.00;;;21.70;65.20;;;;;;5055506;28;20086;-84
2022/03/25 11:55:55;;;;;;;30.98;22.73;;;21.50;64.90;;;;;;5055646;28;20040;-83
2022/03/25 11:58:21;;;;;;;54.75;24.75;;;21.40;65.60;;;;;;5055287;28;20400;-84
2022/03/25 12:00:54;;;;;;;36.25;23.80;;;22.00;65.00;;;;;;5055111;28;20070;-84
2022/03/25 12:03:20;;;;;;;27.92;17.42;;;22.40;65.30;;;;;;5040505;28;20037;-82
2022/03/25 12:06:02;;;;;;;29.00;19.45;;;22.80;61.80;;;;;;5035236;28;20485;-84
2022/03/25 12:08:32;;;;;;;37.20;24.83;;;22.20;62.50;;;;;;5035139;28;20490;-84
2022/03/25 12:11:00;;;;;;;45.08;24.20;;;23.00;62.90;;;;;;5033893;28;20029;-83
2022/03/25 12:13:50;;;;;;;30.35;19.42;;;22.40;63.70;;;;;;5035095;28;20045;-84
2022/03/25 12:16:44;;;;;;;31.50;20.25;;;22.90;59.60;;;;;;5034728;28;20034;-83
2022/03/25 12:19:25;;;;;;;41.22;25.13;;;23.30;60.70;;;;;;5040226;28;20029;-84
2022/03/25 12:21:52;;;;;;;41.90;25.20;;;24.00;62.00;;;;;;5038865;28;20040;-84
2022/03/25 12:24:19;;;;;;;35.92;22.30;;;24.20;62.20;;;;;;5037660;28;20359;-81
2022/03/25 12:26:45;;;;;;;37.97;21.00;;;24.50;59.00;;;;;;5017349;28;20554;-84
2022/03/25 12:29:11;;;;;;;34.65;22.38;;;24.90;60.40;;;;;;5035250;28;20022;-81
2022/03/25 12:31:37;;;;;;;34.03;22.70;;;25.70;58.10;;;;;;5036578;28;20052;-83
2022/03/25 12:34:08;;;;;;;35.88;24.35;;;25.90;59.10;;;;;;5034788;28;20034;-84
2022/03/25 12:36:48;;;;;;;37.38;23.35;;;26.60;59.00;;;;;;5033663;28;20474;-83
2022/03/25 12:39:14;;;;;;;34.88;24.40;;;25.40;57.60;;;;;;5016860;28;20033;-83